Time;durP1;ratioP1;P1;durP2;ratioP2;P2;SDS_P1;SDS_P2;PMS_P1;PMS_P2;Temp;Humidity;BMP_temperature;BMP_pressure;BME280_temperature;BME280_humidity;BME280_pressure;Samples;Min_cycle;Max_cycle;Signal;HPM_P1;HPM_P2
2023/08/09 00:05:33;;;;;;;;;;;12.80;99.90;;;;;;12386714;28;19933;-36
2023/08/09 00:11:54;;;;;;;;;;;12.90;99.90;;;;;;12383717;28;19934;-36
2023/08/09 00:18:09;;;;;;;;;;;12.90;99.90;;;;;;12374144;28;19926;-36
2023/08/09 00:24:25;;;;;;;;;;;13.00;99.90;;;;;;12385767;28;20016;-36
2023/08/09 00:30:44;;;;;;;;;;;13.00;99.90;;;;;;12375429;28;19926;-36
2023/08/09 00:37:07;;;;;;;;;;;13.00;99.90;;;;;;12377504;28;19926;-36
2023/08/09 00:43:34;;;;;;;;;;;13.20;99.90;;;;;;12366369;28;19926;-36
2023/08/09 00:49:55;;;;;;;;;;;13.10;99.90;;;;;;12381274;28;19956;-36
2023/08/09 00:56:10;;;;;;;;;;;13.30;99.90;;;;;;12369961;28;19953;-35
2023/08/09 01:02:15;;;;;;;;;;;13.20;99.90;;;;;;12361827;28;19949;-36
2023/08/09 01:08:29;;;;;;;;;;;13.20;99.90;;;;;;12380298;28;19926;-36
2023/08/09 01:14:43;;;;;;;;;;;13.30;99.90;;;;;;12349607;28;19926;-36
2023/08/09 01:20:57;;;;;;;;;;;13.10;99.90;;;;;;12386787;28;19926;-36
2023/08/09 01:27:14;;;;;;;;;;;13.00;99.90;;;;;;12392834;28;19926;-36
2023/08/09 01:33:30;;;;;;;;;;;12.80;99.90;;;;;;12373743;28;19930;-36
2023/08/09 01:39:46;;;;;;;;;;;12.80;99.90;;;;;;12398164;28;19933;-36
2023/08/09 01:46:01;;;;;;;;;;;12.80;99.90;;;;;;12388857;28;19926;-36
2023/08/09 01:52:11;;;;;;;;;;;12.90;99.90;;;;;;12379234;28;19926;-35
2023/08/09 01:58:36;;;;;;;;;;;12.90;99.90;;;;;;12385829;28;20030;-36
2023/08/09 02:04:53;;;;;;;;;;;12.70;99.90;;;;;;12399447;28;19929;-35
2023/08/09 02:11:01;;;;;;;;;;;12.70;99.90;;;;;;12391318;28;19968;-36
2023/08/09 02:17:13;;;;;;;;;;;12.80;99.90;;;;;;12386691;28;19926;-36
2023/08/09 02:23:26;;;;;;;;;;;12.70;99.90;;;;;;12396302;28;19926;-36
2023/08/09 02:29:36;;;;;;;;;;;12.70;99.90;;;;;;12376167;28;20287;-36
2023/08/09 02:35:59;;;;;;;;;;;12.80;99.90;;;;;;12381341;28;19936;-36
2023/08/09 02:42:17;;;;;;;;;;;12.60;99.90;;;;;;12384720;28;20091;-36
2023/08/09 02:48:42;;;;;;;;;;;12.40;99.90;;;;;;12362323;28;20373;-36
2023/08/09 02:54:59;;;;;;;;;;;12.30;99.90;;;;;;12378507;28;19961;-36
2023/08/09 03:01:21;;;;;;;;;;;12.50;99.90;;;;;;12388882;28;19933;-36
2023/08/09 03:07:44;;;;;;;;;;;12.30;99.90;;;;;;12377089;28;20476;-36
2023/08/09 03:13:56;;;;;;;;;;;12.40;99.90;;;;;;12371624;28;20352;-36
2023/08/09 03:20:18;;;;;;;;;;;12.40;99.90;;;;;;12359288;28;19926;-37
2023/08/09 03:26:31;;;;;;;;;;;12.50;99.90;;;;;;12377390;28;19941;-36
2023/08/09 03:32:39;;;;;;;;;;;12.50;99.90;;;;;;12361572;28;19976;-36
2023/08/09 03:38:44;;;;;;;;;;;12.50;99.90;;;;;;12383895;28;20333;-36
2023/08/09 03:44:58;;;;;;;;;;;12.30;99.90;;;;;;12379852;28;20401;-36
2023/08/09 03:51:09;;;;;;;;;;;12.40;99.90;;;;;;12378188;28;19933;-36
2023/08/09 03:57:24;;;;;;;;;;;12.30;99.90;;;;;;12384346;28;19973;-36
2023/08/09 04:03:54;;;;;;;;;;;12.20;99.90;;;;;;12368468;28;19926;-36
2023/08/09 04:10:18;;;;;;;;;;;12.30;99.90;;;;;;12367701;28;19926;-36
2023/08/09 04:16:44;;;;;;;;;;;12.30;99.90;;;;;;12373294;28;19942;-36
2023/08/09 04:22:56;;;;;;;;;;;12.20;99.90;;;;;;12380488;28;20016;-35
2023/08/09 04:29:08;;;;;;;;;;;12.40;99.90;;;;;;12395501;28;19926;-36
2023/08/09 04:35:25;;;;;;;;;;;12.20;99.90;;;;;;12378179;28;19926;-36
2023/08/09 04:41:56;;;;;;;;;;;12.10;99.90;;;;;;12378291;28;19938;-35
2023/08/09 04:48:26;;;;;;;;;;;12.10;99.90;;;;;;12368945;28;19933;-36
2023/08/09 04:54:54;;;;;;;;;;;12.30;99.90;;;;;;12375164;28;20088;-36
2023/08/09 05:01:11;;;;;;;;;;;12.50;99.90;;;;;;12371109;28;19926;-36
2023/08/09 05:07:33;;;;;;;;;;;13.40;99.90;;;;;;12370917;28;19969;-36
2023/08/09 05:13:49;;;;;;;;;;;13.70;99.90;;;;;;12372593;28;19934;-35
2023/08/09 05:20:07;;;;;;;;;;;14.10;99.90;;;;;;12356970;28;19965;-36
2023/08/09 05:26:24;;;;;;;;;;;14.10;99.90;;;;;;12369660;28;19926;-36
2023/08/09 05:32:35;;;;;;;;;;;14.00;99.90;;;;;;12376757;28;19949;-36
2023/08/09 05:38:56;;;;;;;;;;;13.40;99.90;;;;;;12375690;28;19925;-36
2023/08/09 05:45:12;;;;;;;;;;;13.20;99.90;;;;;;12386009;28;19926;-36
2023/08/09 05:51:31;;;;;;;;;;;13.10;99.90;;;;;;12377787;28;19940;-36
2023/08/09 05:57:48;;;;;;;;;;;13.00;99.90;;;;;;12386635;28;19929;-36
2023/08/09 06:04:12;;;;;;;;;;;13.10;99.90;;;;;;12374999;28;20385;-36
2023/08/09 06:10:33;;;;;;;;;;;13.10;99.90;;;;;;12383030;28;19926;-36
2023/08/09 06:16:55;;;;;;;;;;;13.10;99.90;;;;;;12381510;28;20373;-36
2023/08/09 06:23:24;;;;;;;;;;;13.10;99.90;;;;;;12370131;28;19926;-36
2023/08/09 06:29:44;;;;;;;;;;;13.10;99.90;;;;;;12383769;28;20360;-36
2023/08/09 06:36:08;;;;;;;;;;;13.20;99.90;;;;;;12377350;28;19930;-36
2023/08/09 06:42:17;;;;;;;;;;;13.30;99.90;;;;;;12363551;28;19927;-36
2023/08/09 06:48:37;;;;;;;;;;;13.70;99.90;;;;;;12387398;28;19969;-36
2023/08/09 06:54:58;;;;;;;;;;;13.90;99.90;;;;;;12382869;28;20301;-36
2023/08/09 07:01:24;;;;;;;;;;;14.20;99.90;;;;;;12371316;28;19934;-36
2023/08/09 07:07:38;;;;;;;;;;;14.10;99.90;;;;;;12396342;28;20021;-36
2023/08/09 07:13:52;;;;;;;;;;;14.20;99.90;;;;;;12375910;28;20064;-36
2023/08/09 07:20:14;;;;;;;;;;;14.10;99.90;;;;;;12372374;28;20355;-36
2023/08/09 07:26:41;;;;;;;;;;;14.00;99.90;;;;;;12381641;28;20008;-36
2023/08/09 07:32:57;;;;;;;;;;;14.30;99.90;;;;;;12372330;28;19941;-36
2023/08/09 07:39:13;;;;;;;;;;;14.40;99.90;;;;;;12374785;28;19984;-36
2023/08/09 07:45:31;;;;;;;;;;;14.50;99.90;;;;;;12374370;28;19976;-36
2023/08/09 07:51:50;;;;;;;;;;;14.60;99.90;;;;;;12368875;28;19977;-36
2023/08/09 07:58:15;;;;;;;;;;;14.80;99.90;;;;;;12375898;28;19925;-36
2023/08/09 08:04:41;;;;;;;;;;;14.90;99.90;;;;;;12387463;28;19925;-36
2023/08/09 08:11:03;;;;;;;;;;;15.00;99.90;;;;;;12381045;28;19925;-36
2023/08/09 08:17:56;;;;;;;;;;;15.00;99.90;;;;;;12387223;28;19933;-36
2023/08/09 08:24:17;;;;;;;;;;;15.20;99.90;;;;;;12355738;28;20294;-36
2023/08/09 08:30:49;;;;;;;;;;;15.40;99.90;;;;;;12376146;28;20378;-36
2023/08/09 08:37:05;;;;;;;;;;;15.10;99.90;;;;;;12366702;28;20000;-36
2023/08/09 08:43:27;;;;;;;;;;;15.20;99.90;;;;;;12380412;28;20391;-36
2023/08/09 08:49:54;;;;;;;;;;;15.70;99.90;;;;;;12376539;28;19952;-36
2023/08/09 08:56:18;;;;;;;;;;;15.90;99.90;;;;;;12380788;28;19996;-36
2023/08/09 09:02:34;;;;;;;;;;;15.70;99.90;;;;;;12383413;28;19926;-36
2023/08/09 09:08:55;;;;;;;;;;;15.90;99.90;;;;;;12363526;28;20028;-36
2023/08/09 09:15:14;;;;;;;;;;;16.20;99.90;;;;;;12370770;28;20120;-36
2023/08/09 09:21:40;;;;;;;;;;;16.40;99.90;;;;;;12378661;28;20032;-36
2023/08/09 09:28:02;;;;;;;;;;;16.50;99.90;;;;;;12370400;28;19930;-36
2023/08/09 09:34:13;;;;;;;;;;;16.40;99.90;;;;;;12380853;28;19926;-36
2023/08/09 09:40:33;;;;;;;;;;;16.70;99.90;;;;;;12387772;28;19964;-36
2023/08/09 09:46:43;;;;;;;;;;;17.30;99.90;;;;;;12377320;28;19934;-36
2023/08/09 09:53:02;;;;;;;;;;;17.10;99.90;;;;;;12392289;28;19937;-36
2023/08/09 09:59:27;;;;;;;;;;;17.10;99.90;;;;;;12383393;28;19929;-36
2023/08/09 10:05:54;;;;;;;;;;;17.30;99.90;;;;;;12359426;28;20367;-36
2023/08/09 10:12:11;;;;;;;;;;;17.90;99.90;;;;;;12388680;28;19932;-36
2023/08/09 10:18:46;;;;;;;;;;;18.20;99.90;;;;;;12388868;28;19925;-36
2023/08/09 10:25:06;;;;;;;;;;;17.60;99.90;;;;;;12381582;28;20024;-36
2023/08/09 10:31:40;;;;;;;;;;;17.90;99.90;;;;;;12384443;28;20344;-36
2023/08/09 10:38:09;;;;;;;;;;;17.60;99.90;;;;;;12374061;28;19974;-36
2023/08/09 10:44:40;;;;;;;;;;;18.10;99.90;;;;;;12385810;28;19929;-36
2023/08/09 10:51:11;;;;;;;;;;;18.40;99.90;;;;;;12385244;28;19976;-36
2023/08/09 10:57:42;;;;;;;;;;;18.50;99.90;;;;;;12378812;28;20012;-36
2023/08/09 11:04:00;;;;;;;;;;;19.20;99.90;;;;;;12385276;28;19926;-37
2023/08/09 11:10:20;;;;;;;;;;;18.40;99.90;;;;;;12378421;28;19929;-36
2023/08/09 11:16:38;;;;;;;;;;;18.00;99.90;;;;;;12366002;28;19930;-36
2023/08/09 11:23:00;;;;;;;;;;;18.30;99.90;;;;;;12360348;28;20273;-36
2023/08/09 11:29:14;;;;;;;;;;;19.00;99.90;;;;;;12368567;28;19933;-36
2023/08/09 11:35:34;;;;;;;;;;;19.10;99.90;;;;;;12368401;28;19930;-36
2023/08/09 11:41:55;;;;;;;;;;;18.80;99.90;;;;;;12382932;28;19933;-36
2023/08/09 11:48:09;;;;;;;;;;;18.70;99.90;;;;;;12391212;28;20012;-36
2023/08/09 11:54:26;;;;;;;;;;;19.10;99.90;;;;;;12389634;28;19926;-36
2023/08/09 12:00:42;;;;;;;;;;;18.50;99.90;;;;;;12379177;28;19937;-36
2023/08/09 12:07:02;;;;;;;;;;;18.60;99.90;;;;;;12382622;28;19926;-36
2023/08/09 12:13:19;;;;;;;;;;;18.80;99.90;;;;;;12356434;28;20044;-36
2023/08/09 12:19:38;;;;;;;;;;;18.90;99.90;;;;;;12383365;28;19925;-36
2023/08/09 12:26:02;;;;;;;;;;;18.80;99.90;;;;;;12379375;28;19926;-36
2023/08/09 12:32:20;;;;;;;;;;;18.20;99.90;;;;;;12374263;28;19934;-36
2023/08/09 12:38:37;;;;;;;;;;;18.00;99.90;;;;;;12354122;28;19926;-36
2023/08/09 12:44:48;;;;;;;;;;;18.30;99.90;;;;;;12367131;28;19941;-36
2023/08/09 12:51:09;;;;;;;;;;;18.70;99.90;;;;;;12365647;28;19936;-36
2023/08/09 12:57:32;;;;;;;;;;;18.60;99.90;;;;;;12358152;28;19977;-36
2023/08/09 13:03:52;;;;;;;;;;;18.30;99.90;;;;;;12369528;28;19925;-36
2023/08/09 13:10:08;;;;;;;;;;;18.20;99.90;;;;;;12372073;28;19932;-36
2023/08/09 13:16:22;;;;;;;;;;;18.70;99.90;;;;;;12370138;28;19932;-36
2023/08/09 13:22:42;;;;;;;;;;;18.30;99.90;;;;;;12359898;28;19926;-36
2023/08/09 13:29:00;;;;;;;;;;;19.20;99.90;;;;;;12375121;28;19930;-36
2023/08/09 13:35:11;;;;;;;;;;;19.60;99.90;;;;;;12382403;28;19926;-36
2023/08/09 13:41:16;;;;;;;;;;;19.20;99.90;;;;;;12369894;28;19934;-36
2023/08/09 13:47:30;;;;;;;;;;;18.70;99.90;;;;;;12378227;28;19926;-36
2023/08/09 13:53:44;;;;;;;;;;;19.50;99.90;;;;;;12379541;28;19926;-36
2023/08/09 14:00:02;;;;;;;;;;;19.90;99.90;;;;;;12377708;28;19989;-36
2023/08/09 14:06:22;;;;;;;;;;;20.30;99.90;;;;;;12378102;28;19925;-36
2023/08/09 14:12:49;;;;;;;;;;;19.50;99.90;;;;;;12367695;28;20321;-36
2023/08/09 14:19:12;;;;;;;;;;;19.20;99.90;;;;;;12387840;28;19937;-36
2023/08/09 14:25:36;;;;;;;;;;;19.00;99.90;;;;;;12385667;28;19933;-36
2023/08/09 14:31:59;;;;;;;;;;;19.00;99.90;;;;;;12379417;28;20017;-37
2023/08/09 14:38:30;;;;;;;;;;;19.40;99.90;;;;;;12377712;28;20747;-37
2023/08/09 14:44:56;;;;;;;;;;;19.20;99.90;;;;;;12384456;28;19961;-36
2023/08/09 14:51:42;;;;;;;;;;;19.10;99.90;;;;;;12373452;28;19984;-36
2023/08/09 15:28:18;;;;;;;;;;;20.40;99.90;;;;;;12502521;28;19932;-87
2023/08/09 15:34:20;;;;;;;;;;;19.70;99.90;;;;;;12443130;28;20459;-87
2023/08/09 15:40:22;;;;;;;;;;;19.60;99.90;;;;;;12441247;28;20377;-86
2023/08/09 15:46:24;;;;;;;;;;;19.60;99.90;;;;;;12403070;28;19925;-88
2023/08/09 15:52:26;;;;;;;;;;;20.20;99.90;;;;;;12450803;28;19921;-87
2023/08/09 15:58:27;;;;;;;;;;;20.70;99.90;;;;;;12444909;28;19936;-87
2023/08/09 16:04:29;;;;;;;;;;;20.20;99.90;;;;;;12470579;28;19922;-87
2023/08/09 16:10:31;;;;;;;;;;;20.10;99.90;;;;;;12455192;28;19913;-88
2023/08/09 16:16:33;;;;;;;;;;;20.20;99.90;;;;;;12437813;28;19933;-87
2023/08/09 16:22:39;;;;;;;;;;;20.50;99.90;;;;;;12396601;28;20136;-87
2023/08/09 16:28:41;;;;;;;;;;;20.40;99.90;;;;;;12386573;28;19933;-88
2023/08/09 16:34:43;;;;;;;;;;;19.70;99.90;;;;;;12439153;28;19933;-87
2023/08/09 16:40:45;;;;;;;;;;;19.30;99.90;;;;;;12440980;28;20423;-88
2023/08/09 16:46:47;;;;;;;;;;;19.40;99.90;;;;;;12451115;28;19932;-86
2023/08/09 16:52:49;;;;;;;;;;;19.20;99.90;;;;;;12446552;28;20024;-86
2023/08/09 16:58:51;;;;;;;;;;;19.70;99.90;;;;;;12449330;28;19956;-87
2023/08/09 17:04:53;;;;;;;;;;;20.20;99.90;;;;;;12435905;28;20250;-87
2023/08/09 17:10:55;;;;;;;;;;;20.30;99.90;;;;;;12451271;28;19929;-88
2023/08/09 17:16:57;;;;;;;;;;;19.70;99.90;;;;;;12428750;28;20525;-87
2023/08/09 17:22:59;;;;;;;;;;;19.90;99.90;;;;;;12439131;28;19958;-87
2023/08/09 17:29:00;;;;;;;;;;;19.70;99.90;;;;;;12463504;28;19968;-88
2023/08/09 17:35:06;;;;;;;;;;;20.10;99.90;;;;;;12467232;28;19968;-87
2023/08/09 17:41:09;;;;;;;;;;;20.10;99.90;;;;;;12474142;28;20019;-87
2023/08/09 17:47:12;;;;;;;;;;;19.90;99.90;;;;;;12454708;28;19975;-87
2023/08/09 17:53:14;;;;;;;;;;;19.30;99.90;;;;;;12446508;28;19968;-87
2023/08/09 17:59:16;;;;;;;;;;;18.90;99.90;;;;;;12472565;28;20020;-88
2023/08/09 18:05:17;;;;;;;;;;;18.60;99.90;;;;;;12469070;28;19929;-87
2023/08/09 18:11:19;;;;;;;;;;;18.40;99.90;;;;;;12467093;28;19929;-87
2023/08/09 18:17:22;;;;;;;;;;;18.40;99.90;;;;;;12441129;28;19933;-87
2023/08/09 18:23:24;;;;;;;;;;;18.30;99.90;;;;;;12457974;28;20105;-87
2023/08/09 18:29:26;;;;;;;;;;;18.30;99.90;;;;;;12450046;28;20828;-88
2023/08/09 18:35:29;;;;;;;;;;;18.10;99.90;;;;;;12455826;28;19995;-88
2023/08/09 18:41:31;;;;;;;;;;;18.20;99.90;;;;;;12450681;28;19940;-88
2023/08/09 18:47:33;;;;;;;;;;;17.90;99.90;;;;;;12455576;28;19925;-86
2023/08/09 18:53:35;;;;;;;;;;;17.80;99.90;;;;;;12447322;28;19940;-87
2023/08/09 18:59:37;;;;;;;;;;;17.60;99.90;;;;;;12460011;28;19969;-86
2023/08/09 19:05:39;;;;;;;;;;;17.60;99.90;;;;;;12456197;28;19925;-88
2023/08/09 19:11:41;;;;;;;;;;;17.40;99.90;;;;;;12452677;28;19975;-87
2023/08/09 19:17:42;;;;;;;;;;;17.40;99.90;;;;;;12480055;28;19929;-86
2023/08/09 19:23:44;;;;;;;;;;;17.20;99.90;;;;;;12466564;28;20396;-87
2023/08/09 19:29:47;;;;;;;;;;;17.10;99.90;;;;;;12461101;28;19936;-87
2023/08/09 19:35:48;;;;;;;;;;;17.00;99.90;;;;;;12469181;28;19929;-87
2023/08/09 19:41:50;;;;;;;;;;;17.10;99.90;;;;;;12468873;28;19971;-88
2023/08/09 19:47:54;;;;;;;;;;;16.90;99.90;;;;;;12471213;28;19971;-87
2023/08/09 19:53:56;;;;;;;;;;;16.70;99.90;;;;;;12469105;28;19940;-87
2023/08/09 19:59:57;;;;;;;;;;;16.70;99.90;;;;;;12466107;28;19925;-87
2023/08/09 20:06:06;;;;;;;;;;;16.80;99.90;;;;;;12464291;28;19965;-87
2023/08/09 20:12:08;;;;;;;;;;;16.90;99.90;;;;;;12468547;28;19929;-87
2023/08/09 20:18:10;;;;;;;;;;;16.80;99.90;;;;;;12465174;28;19933;-87
2023/08/09 20:24:31;;;;;;;;;;;16.60;99.90;;;;;;12452166;28;19965;-87
2023/08/09 20:30:33;;;;;;;;;;;16.60;99.90;;;;;;12455917;28;19925;-87
2023/08/09 20:36:35;;;;;;;;;;;16.60;99.90;;;;;;12454942;28;19955;-88
2023/08/09 20:42:37;;;;;;;;;;;16.60;99.90;;;;;;12452312;28;20269;-87
2023/08/09 20:48:40;;;;;;;;;;;16.60;99.90;;;;;;12438553;28;19930;-88
2023/08/09 20:54:42;;;;;;;;;;;16.40;99.90;;;;;;12444047;28;19983;-87
2023/08/09 21:00:44;;;;;;;;;;;16.30;99.90;;;;;;12451728;28;20339;-87
2023/08/09 21:06:47;;;;;;;;;;;16.00;99.90;;;;;;12446894;28;19940;-87
2023/08/09 21:12:49;;;;;;;;;;;15.90;99.90;;;;;;12428050;28;20402;-87
2023/08/09 21:18:54;;;;;;;;;;;15.80;99.90;;;;;;12445253;28;20316;-88
2023/08/09 21:24:56;;;;;;;;;;;15.80;99.90;;;;;;12436688;28;20516;-87
2023/08/09 21:31:00;;;;;;;;;;;15.70;99.90;;;;;;12461939;28;20465;-87
2023/08/09 21:37:02;;;;;;;;;;;15.60;99.90;;;;;;12435972;28;19963;-88
2023/08/09 21:43:04;;;;;;;;;;;15.60;99.90;;;;;;12459181;28;19971;-88
2023/08/09 21:49:06;;;;;;;;;;;15.70;99.90;;;;;;12454438;28;20012;-88
2023/08/09 21:55:08;;;;;;;;;;;15.70;99.90;;;;;;12470537;28;19925;-88
2023/08/09 22:01:09;;;;;;;;;;;15.70;99.90;;;;;;12472408;28;19968;-88
2023/08/09 22:07:12;;;;;;;;;;;15.60;99.90;;;;;;12461115;28;19929;-88
2023/08/09 22:13:14;;;;;;;;;;;15.60;99.90;;;;;;12479437;28;20518;-88
2023/08/09 22:19:16;;;;;;;;;;;15.70;99.90;;;;;;12454260;28;20311;-88
2023/08/09 22:25:18;;;;;;;;;;;15.80;99.90;;;;;;12473112;28;19925;-88
2023/08/09 22:31:20;;;;;;;;;;;15.60;99.90;;;;;;12438693;28;20027;-88
2023/08/09 22:37:21;;;;;;;;;;;15.60;99.90;;;;;;12474522;28;19925;-88
2023/08/09 22:43:24;;;;;;;;;;;15.40;99.90;;;;;;12462315;28;19971;-88
2023/08/09 22:49:27;;;;;;;;;;;15.50;99.90;;;;;;12457330;28;19933;-88
2023/08/09 22:55:28;;;;;;;;;;;15.40;99.90;;;;;;12448363;28;20020;-88
2023/08/09 23:01:30;;;;;;;;;;;15.20;99.90;;;;;;12446915;28;19929;-88
2023/08/09 23:07:32;;;;;;;;;;;15.00;99.90;;;;;;12471931;28;19925;-88
2023/08/09 23:13:34;;;;;;;;;;;14.80;99.90;;;;;;12467632;28;19976;-88
2023/08/09 23:19:36;;;;;;;;;;;14.80;99.90;;;;;;12454815;28;19933;-88
2023/08/09 23:25:38;;;;;;;;;;;14.60;99.90;;;;;;12456709;28;20179;-88
2023/08/09 23:31:40;;;;;;;;;;;14.70;99.90;;;;;;12455362;28;20015;-88
2023/08/09 23:37:41;;;;;;;;;;;14.70;99.90;;;;;;12441075;28;20388;-88
2023/08/09 23:43:43;;;;;;;;;;;14.70;99.90;;;;;;12446049;28;19994;-88
2023/08/09 23:49:45;;;;;;;;;;;14.70;99.90;;;;;;12443469;28;20063;-88
2023/08/09 23:55:46;;;;;;;;;;;14.70;99.90;;;;;;12446006;28;19964;-88
